Time;durP1;ratioP1;P1;durP2;ratioP2;P2;SDS_P1;SDS_P2;PMS_P1;PMS_P2;Temp;Humidity;BMP_temperature;BMP_pressure;BME280_temperature;BME280_humidity;BME280_pressure;Samples;Min_cycle;Max_cycle;Signal;HPM_P1;HPM_P2
2022/07/14 00:01:22;;;;;;;4.63;3.10;;;;;;;13.17;100.00;98448.25;5089639;28;20427;-56
2022/07/14 00:03:48;;;;;;;4.32;2.88;;;;;;;13.17;100.00;98446.28;5091823;28;20138;-55
2022/07/14 00:06:15;;;;;;;4.07;2.50;;;;;;;13.21;100.00;98446.28;5093222;28;20051;-51
2022/07/14 00:08:43;;;;;;;4.68;2.85;;;;;;;13.18;100.00;98447.06;5093232;28;20048;-54
2022/07/14 00:11:10;;;;;;;3.85;2.95;;;;;;;13.14;100.00;98447.09;5093285;28;20055;-53
2022/07/14 00:13:36;;;;;;;4.25;2.72;;;;;;;13.10;100.00;98462.84;5093028;28;20135;-51
2022/07/14 00:19:05;;;;;;;3.58;2.83;;;;;;;13.01;100.00;98456.97;5092956;28;20052;-52
2022/07/14 00:24:45;;;;;;;3.60;3.25;;;;;;;12.98;100.00;98445.97;5092291;28;20048;-55
2022/07/14 00:27:12;;;;;;;2.92;2.65;;;;;;;12.93;100.00;98447.16;5093109;28;20051;-54
2022/07/14 00:30:13;;;;;;;3.45;2.97;;;;;;;12.91;100.00;98447.56;5092782;28;20055;-51
2022/07/14 00:32:40;;;;;;;8.57;3.00;;;;;;;12.93;100.00;98439.69;5083925;28;20055;-52
2022/07/14 00:35:07;;;;;;;2.38;2.25;;;;;;;12.88;100.00;98437.34;5093120;28;20048;-51
2022/07/14 00:37:34;;;;;;;3.90;2.63;;;;;;;12.82;100.00;98438.94;5092891;28;20572;-52
2022/07/14 00:40:02;;;;;;;5.32;2.38;;;;;;;12.79;100.00;98441.69;5092879;28;20047;-51
2022/07/14 00:42:32;;;;;;;2.90;2.60;;;;;;;12.75;100.00;98446.41;5092757;28;20139;-54
2022/07/14 00:44:58;;;;;;;3.55;2.60;;;;;;;12.72;100.00;98434.25;5092907;28;20139;-51
2022/07/14 00:47:27;;;;;;;4.93;2.72;;;;;;;12.73;100.00;98430.34;5093107;28;20139;-52
2022/07/14 00:49:55;;;;;;;6.22;3.10;;;;;;;12.74;100.00;98440.13;5092843;28;20764;-51
2022/07/14 00:52:22;;;;;;;12.85;3.45;;;;;;;12.76;100.00;98440.50;5092846;28;20544;-53
2022/07/14 00:54:49;;;;;;;5.78;2.50;;;;;;;12.72;100.00;98437.78;5092885;28;20058;-52
2022/07/14 00:57:15;;;;;;;7.13;3.08;;;;;;;12.70;100.00;98434.66;5092588;28;20056;-53
2022/07/14 00:59:42;;;;;;;4.38;2.80;;;;;;;12.66;100.00;98431.13;5092674;28;20109;-51
2022/07/14 01:02:08;;;;;;;3.47;2.88;;;;;;;12.68;100.00;98431.50;5092921;28;20071;-52
2022/07/14 01:04:35;;;;;;;3.40;3.05;;;;;;;12.66;100.00;98425.63;5092864;28;20074;-52
2022/07/14 01:07:01;;;;;;;2.92;2.72;;;;;;;12.65;100.00;98437.78;5092255;28;20091;-52
2022/07/14 01:09:27;;;;;;;3.30;3.00;;;;;;;12.63;100.00;98434.69;5092348;28;20109;-51
2022/07/14 01:11:54;;;;;;;2.75;2.55;;;;;;;12.61;100.00;98447.25;5092192;28;20051;-54
2022/07/14 01:14:21;;;;;;;2.92;2.45;;;;;;;12.61;100.00;98444.50;5092277;28;20055;-51
2022/07/14 01:16:47;;;;;;;3.55;2.67;;;;;;;12.58;100.00;98434.28;5092190;28;20044;-53
2022/07/14 01:19:13;;;;;;;5.00;2.47;;;;;;;12.56;100.00;98442.13;5092297;28;20150;-54
2022/07/14 01:21:40;;;;;;;2.85;2.65;;;;;;;12.54;100.00;98445.28;5092034;28;20047;-54
2022/07/14 01:24:06;;;;;;;12.45;3.95;;;;;;;12.51;100.00;98442.53;5092030;28;20082;-53
2022/07/14 01:26:33;;;;;;;4.22;2.78;;;;;;;12.47;100.00;98445.31;5092076;28;20051;-54
2022/07/14 01:28:59;;;;;;;2.90;2.65;;;;;;;12.48;100.00;98449.63;5092268;28;20048;-52
2022/07/14 01:31:25;;;;;;;3.85;3.05;;;;;;;12.42;100.00;98446.47;5091799;28;20051;-51
2022/07/14 01:33:52;;;;;;;4.53;2.80;;;;;;;12.42;100.00;98449.22;5091977;28;20052;-51
2022/07/14 01:36:18;;;;;;;3.42;3.13;;;;;;;12.34;100.00;98455.91;5092109;28;20060;-54
2022/07/14 01:38:45;;;;;;;3.10;2.80;;;;;;;12.34;100.00;98452.38;5091773;28;20052;-52
2022/07/14 01:41:11;;;;;;;2.95;2.75;;;;;;;12.33;100.00;98442.53;5092093;28;20056;-52
2022/07/14 01:43:37;;;;;;;3.20;2.95;;;;;;;12.29;100.00;98444.53;5091561;28;20063;-55
2022/07/14 01:46:03;;;;;;;4.85;2.92;;;;;;;12.31;100.00;98448.44;5091862;28;20058;-53
2022/07/14 01:48:30;;;;;;;5.47;2.63;;;;;;;12.33;100.00;98457.09;5091654;28;20193;-51
2022/07/14 01:50:56;;;;;;;4.28;3.88;;;;;;;12.29;100.00;98453.53;5091586;28;20129;-50
2022/07/14 01:53:22;;;;;;;3.00;2.80;;;;;;;12.30;100.00;98446.13;5091722;28;20048;-51
2022/07/14 01:55:49;;;;;;;2.78;2.53;;;;;;;12.27;100.00;98442.19;5091934;28;20044;-53
2022/07/14 01:58:15;;;;;;;3.90;2.75;;;;;;;12.24;100.00;98449.25;5091611;28;20088;-51
2022/07/14 02:00:42;;;;;;;3.60;2.65;;;;;;;12.25;100.00;98447.28;5091849;28;20155;-51
2022/07/14 02:03:08;;;;;;;3.78;2.72;;;;;;;12.18;100.00;98458.28;5091675;28;20130;-53
2022/07/14 02:05:34;;;;;;;3.50;2.70;;;;;;;12.20;100.00;98462.22;5091450;28;20047;-51
2022/07/14 02:08:00;;;;;;;2.95;2.75;;;;;;;12.16;100.00;98455.94;5091498;28;20058;-53
2022/07/14 02:13:11;;;;;;;6.20;2.80;;;;;;;12.23;100.00;98447.69;5091669;28;20541;-51
2022/07/14 02:15:37;;;;;;;3.80;2.53;;;;;;;12.19;100.00;98446.88;5091549;28;20052;-51
2022/07/14 02:18:04;;;;;;;5.30;2.65;;;;;;;12.23;100.00;98439.44;5091224;28;20092;-52
2022/07/14 02:20:30;;;;;;;2.85;2.65;;;;;;;12.27;100.00;98444.94;5091266;28;20052;-50
2022/07/14 02:22:56;;;;;;;3.75;2.78;;;;;;;12.32;100.00;98455.50;5091089;28;20558;-55
2022/07/14 02:25:23;;;;;;;2.83;2.63;;;;;;;12.32;100.00;98454.72;5090288;28;20147;-55
2022/07/14 02:27:49;;;;;;;6.50;3.22;;;;;;;12.37;100.00;98451.59;5091229;28;20064;-53
2022/07/14 02:30:16;;;;;;;3.47;2.90;;;;;;;12.46;100.00;98444.53;5091209;28;20415;-53
2022/07/14 02:32:42;;;;;;;4.10;2.65;;;;;;;12.70;100.00;98453.13;5091106;28;20048;-54
2022/07/14 02:35:08;;;;;;;3.00;2.75;;;;;;;12.89;100.00;98454.63;5090998;28;20048;-55
2022/07/14 02:37:34;;;;;;;5.75;2.42;;;;;;;13.04;100.00;98471.91;5090872;28;20052;-54
2022/07/14 02:40:01;;;;;;;4.80;2.90;;;;;;;13.28;100.00;98473.00;5091065;28;20062;-55
2022/07/14 02:42:27;;;;;;;2.35;2.25;;;;;;;13.67;100.00;98491.31;5090927;28;20055;-55
2022/07/14 02:44:53;;;;;;;3.55;3.15;;;;;;;13.85;100.00;98516.78;5090913;28;20048;-52
2022/07/14 02:47:20;;;;;;;2.08;1.98;;;;;;;13.78;100.00;98536.13;5090751;28;20075;-54
2022/07/14 02:49:47;;;;;;;6.60;2.50;;;;;;;13.83;100.00;98538.47;5090692;28;20484;-51
2022/07/14 02:52:13;;;;;;;2.75;2.42;;;;;;;14.18;100.00;98542.19;5090700;28;20048;-55
2022/07/14 02:54:39;;;;;;;5.15;1.98;;;;;;;14.76;100.00;98577.25;5090980;28;20048;-54
2022/07/14 02:57:05;;;;;;;2.28;2.00;;;;;;;15.37;100.00;98620.06;5090662;28;20054;-54
2022/07/14 02:59:32;;;;;;;4.03;2.60;;;;;;;15.85;100.00;98680.72;5090462;28;20135;-52
2022/07/14 03:01:58;;;;;;;2.40;1.83;;;;;;;16.33;100.00;98729.56;5090858;28;20549;-52
2022/07/14 03:04:25;;;;;;;6.13;2.33;;;;;;;16.51;100.00;98772.81;5090660;28;20047;-54
2022/07/14 03:06:52;;;;;;;4.40;2.10;;;;;;;16.03;100.00;98790.34;5090535;28;20478;-52
2022/07/14 03:09:18;;;;;;;3.75;2.55;;;;;;;15.55;100.00;98791.94;5090305;28;20189;-54
2022/07/14 03:11:44;;;;;;;2.45;2.15;;;;;;;15.22;100.00;98793.38;5090398;28;20056;-53
2022/07/14 03:14:11;;;;;;;5.88;2.97;;;;;;;15.02;100.00;98774.56;5090465;28;20047;-53
2022/07/14 03:16:37;;;;;;;2.60;2.40;;;;;;;14.75;100.00;98748.69;5090265;28;20052;-53
2022/07/14 03:19:03;;;;;;;6.38;3.30;;;;;;;14.67;100.00;98725.09;5090341;28;20077;-52
2022/07/14 03:21:30;;;;;;;4.03;2.70;;;;;;;14.93;100.00;98696.16;5090499;28;20047;-52
2022/07/14 03:23:56;;;;;;;2.75;2.55;;;;;;;15.81;100.00;98702.09;5090182;28;20132;-53
2022/07/14 03:26:23;;;;;;;4.55;1.92;;;;;;;16.45;100.00;98756.66;5090102;28;20052;-54
2022/07/14 03:28:49;;;;;;;9.93;2.00;;;;;;;16.42;100.00;98798.22;5090225;28;20054;-55
2022/07/14 03:31:15;;;;;;;7.22;2.33;;;;;;;16.04;100.00;98816.81;5090716;28;20578;-53
2022/07/14 03:33:41;;;;;;;6.85;2.40;;;;;;;15.96;100.00;98811.34;5090450;28;20162;-55
2022/07/14 03:36:08;;;;;;;3.38;3.10;;;;;;;15.82;100.00;98800.41;5090271;28;20171;-53
2022/07/14 03:38:35;;;;;;;4.25;3.30;;;;;;;15.75;100.00;98776.38;5088988;28;20555;-53
2022/07/14 03:41:03;;;;;;;2.90;2.70;;;;;;;15.80;100.00;98758.59;5090436;28;20402;-54
2022/07/14 03:43:29;;;;;;;5.22;3.35;;;;;;;15.84;100.00;98739.22;5090080;28;20044;-54
2022/07/14 03:45:55;;;;;;;3.88;2.97;;;;;;;15.83;100.00;98724.59;5090195;28;20048;-51
2022/07/14 03:48:22;;;;;;;5.03;3.83;;;;;;;15.89;100.00;98717.41;5090183;28;20404;-52
2022/07/14 03:50:48;;;;;;;12.50;4.75;;;;;;;15.84;100.00;98695.75;5089845;28;20472;-51
2022/07/14 03:53:15;;;;;;;4.90;4.40;;;;;;;15.84;100.00;98681.94;5090065;28;20052;-52
2022/07/14 03:55:43;;;;;;;7.55;6.82;;;;;;;15.87;100.00;98658.22;5089810;28;20050;-55
2022/07/14 03:58:09;;;;;;;5.70;4.13;;;;;;;15.92;100.00;98655.78;5089716;28;20087;-51
2022/07/14 04:00:35;;;;;;;5.68;5.18;;;;;;;16.04;100.00;98654.47;5089741;28;20052;-54
2022/07/14 04:03:02;;;;;;;8.13;4.32;;;;;;;15.97;100.00;98646.25;5089633;28;20048;-53
2022/07/14 04:05:28;;;;;;;7.60;5.00;;;;;;;16.14;100.00;98638.94;5089706;28;20063;-53
2022/07/14 04:07:54;;;;;;;6.55;5.38;;;;;;;16.06;100.00;98631.91;5089806;28;20048;-54
2022/07/14 04:10:21;;;;;;;6.70;5.50;;;;;;;16.09;100.00;98626.34;5089464;28;20052;-55
2022/07/14 04:12:47;;;;;;;6.93;5.47;;;;;;;16.10;100.00;98607.78;5089618;28;20053;-53
2022/07/14 04:15:14;;;;;;;7.97;5.00;;;;;;;16.14;100.00;98612.06;5089476;28;20071;-54
2022/07/14 04:17:40;;;;;;;7.57;5.22;;;;;;;16.26;100.00;98612.69;5089676;28;20043;-54
2022/07/14 04:20:08;;;;;;;5.20;4.70;;;;;;;16.47;100.00;98598.56;5089877;28;20052;-52
2022/07/14 04:22:34;;;;;;;6.50;5.00;;;;;;;16.59;100.00;98608.25;5089416;28;20048;-53
2022/07/14 04:25:01;;;;;;;7.30;4.93;;;;;;;16.62;100.00;98624.81;5089272;28;20048;-51
2022/07/14 04:27:27;;;;;;;5.50;4.53;;;;;;;16.59;100.00;98624.84;5089481;28;20580;-55
2022/07/14 04:29:54;;;;;;;6.63;4.97;;;;;;;16.92;100.00;98626.72;5089423;28;20062;-54
2022/07/14 04:32:20;;;;;;;8.15;4.25;;;;;;;17.07;100.00;98643.13;5089450;28;20097;-55
2022/07/14 04:34:46;;;;;;;8.80;4.70;;;;;;;17.20;100.00;98662.69;5089326;28;20101;-56
2022/07/14 04:37:12;;;;;;;7.07;5.50;;;;;;;17.27;100.00;98691.06;5089237;28;20059;-54
2022/07/14 04:39:39;;;;;;;5.35;4.68;;;;;;;17.39;100.00;98695.19;5089408;28;20170;-55
2022/07/14 04:42:05;;;;;;;4.97;4.32;;;;;;;17.48;100.00;98702.97;5089319;28;20048;-55
2022/07/14 04:44:31;;;;;;;5.90;5.30;;;;;;;17.56;100.00;98702.44;5089311;28;20059;-54
2022/07/14 04:46:58;;;;;;;6.43;4.45;;;;;;;17.71;100.00;98708.50;5089635;28;20052;-55
2022/07/14 04:52:09;;;;;;;4.70;4.28;;;;;;;18.40;100.00;98752.41;5092655;28;20415;-55
2022/07/14 04:54:36;;;;;;;4.60;4.28;;;;;;;19.67;100.00;98781.28;5092816;28;20514;-53
2022/07/14 04:57:04;;;;;;;5.15;3.70;;;;;;;19.62;100.00;98767.88;5092535;28;20427;-53
2022/07/14 04:59:31;;;;;;;3.85;3.42;;;;;;;19.56;100.00;98749.38;5092456;28;20063;-56
2022/07/14 05:01:58;;;;;;;4.38;3.08;;;;;;;20.23;100.00;98721.78;5092491;28;20075;-57
2022/07/14 05:04:24;;;;;;;3.17;2.90;;;;;;;20.33;100.00;98656.69;5092549;28;20173;-55
2022/07/14 05:06:50;;;;;;;3.72;2.83;;;;;;;20.49;100.00;98594.53;5092289;28;20133;-55
2022/07/14 05:09:18;;;;;;;3.35;2.80;;;;;;;20.51;100.00;98585.78;5092323;28;20462;-54
2022/07/14 05:11:44;;;;;;;3.80;2.95;;;;;;;20.65;100.00;98565.81;5092357;28;20135;-56
2022/07/14 05:14:10;;;;;;;3.03;2.72;;;;;;;20.61;100.00;98554.81;5092810;28;20101;-54
2022/07/14 05:16:38;;;;;;;3.15;2.53;;;;;;;20.34;100.00;98529.41;5092237;28;20213;-55
2022/07/14 05:19:05;;;;;;;3.83;3.00;;;;;;;20.36;100.00;98560.34;5092238;28;20059;-55
2022/07/14 05:21:31;;;;;;;3.83;3.20;;;;;;;20.33;100.00;98589.09;5092189;28;20047;-55
2022/07/14 05:23:58;;;;;;;3.72;3.42;;;;;;;20.29;100.00;98644.84;5092444;28;20052;-56
2022/07/14 05:26:24;;;;;;;2.88;2.70;;;;;;;20.17;100.00;98634.50;5092231;28;20091;-54
2022/07/14 05:28:50;;;;;;;5.80;3.15;;;;;;;20.07;100.00;98661.41;5092423;28;20048;-55
2022/07/14 05:31:16;;;;;;;3.10;2.50;;;;;;;19.86;100.00;98664.78;5091880;28;20052;-52
2022/07/14 05:33:43;;;;;;;3.42;2.90;;;;;;;19.63;100.00;98691.63;5092231;28;20186;-55
2022/07/14 05:36:10;;;;;;;3.92;3.33;;;;;;;19.89;100.00;98694.50;5092020;28;20494;-55
2022/07/14 05:38:36;;;;;;;6.68;3.50;;;;;;;20.02;100.00;98670.28;5091908;28;20048;-54
2022/07/14 05:41:02;;;;;;;3.63;3.33;;;;;;;19.87;100.00;98697.75;5091565;28;20491;-55
2022/07/14 05:43:29;;;;;;;5.70;3.50;;;;;;;19.83;100.00;98657.34;5091637;28;20106;-55
2022/07/14 05:45:55;;;;;;;3.55;3.22;;;;;;;19.71;100.00;98692.22;5091758;28;20453;-53
2022/07/14 05:48:21;;;;;;;4.60;3.88;;;;;;;19.56;100.00;98708.47;5091684;28;20086;-52
2022/07/14 05:50:48;;;;;;;4.70;3.40;;;;;;;19.51;100.00;98718.09;5091633;28;20067;-53
2022/07/14 05:53:15;;;;;;;3.90;3.50;;;;;;;19.30;100.00;98734.56;5091780;28;20048;-52
2022/07/14 05:55:41;;;;;;;4.03;3.33;;;;;;;19.35;100.00;98756.25;5091690;28;20092;-52
2022/07/14 05:58:07;;;;;;;5.13;3.63;;;;;;;19.15;100.00;98762.66;5091544;28;20628;-55
2022/07/14 06:00:33;;;;;;;6.97;4.15;;;;;;;19.05;100.00;98764.47;5090428;28;20051;-52
2022/07/14 06:03:00;;;;;;;7.10;4.13;;;;;;;18.97;100.00;98773.41;5091824;28;20058;-53
2022/07/14 06:05:26;;;;;;;5.40;4.35;;;;;;;18.82;100.00;98784.03;5091267;28;20048;-52
2022/07/14 06:07:52;;;;;;;5.63;5.13;;;;;;;18.73;100.00;98797.75;5091675;28;20044;-54
2022/07/14 06:10:19;;;;;;;7.43;5.45;;;;;;;18.58;100.00;98800.75;5091079;28;20454;-55
2022/07/14 06:12:46;;;;;;;6.65;6.00;;;;;;;18.50;100.00;98809.69;5091521;28;20105;-54
2022/07/14 06:15:13;;;;;;;8.23;5.40;;;;;;;18.54;100.00;98807.59;5091388;28;20094;-55
2022/07/14 06:17:39;;;;;;;12.85;9.85;;;;;;;18.57;100.00;98806.75;5091140;28;20056;-56
2022/07/14 06:20:07;;;;;;;15.48;11.60;;;;;;;18.49;100.00;98805.31;5091090;28;20100;-55
2022/07/14 06:22:34;;;;;;;8.30;5.97;;;;;;;18.52;100.00;98815.56;5090953;28;20135;-56
2022/07/14 06:25:01;;;;;;;7.93;6.35;;;;;;;18.20;100.00;98810.66;5091038;28;20047;-56
2022/07/14 06:27:28;;;;;;;13.13;7.43;;;;;;;18.28;100.00;98807.31;5091175;28;20480;-54
2022/07/14 06:29:54;;;;;;;19.75;9.07;;;;;;;18.16;100.00;98796.84;5090868;28;20423;-54
2022/07/14 06:32:23;;;;;;;12.60;7.25;;;;;;;18.15;100.00;98795.25;5090867;28;20501;-55
2022/07/14 06:34:49;;;;;;;73.88;36.63;;;;;;;18.00;100.00;98791.19;5090978;28;20071;-56
2022/07/14 06:37:16;;;;;;;118.38;33.55;;;;;;;18.04;100.00;98791.91;5090793;28;20503;-52
2022/07/14 06:39:42;;;;;;;21.38;10.90;;;;;;;18.15;100.00;98808.34;5091074;28;20091;-54
2022/07/14 06:42:09;;;;;;;67.28;20.83;;;;;;;18.02;100.00;98799.88;5090926;28;20048;-52
2022/07/14 06:44:36;;;;;;;157.80;42.78;;;;;;;18.34;100.00;98805.59;5090782;28;20109;-55
2022/07/14 06:47:02;;;;;;;39.42;16.23;;;;;;;18.40;100.00;98822.56;5090768;28;20071;-53
2022/07/14 06:49:28;;;;;;;27.27;12.15;;;;;;;18.47;100.00;98825.19;5090645;28;20139;-52
2022/07/14 06:51:54;;;;;;;43.67;25.65;;;;;;;18.55;100.00;98828.59;5090502;28;20051;-55
2022/07/14 06:54:21;;;;;;;48.88;23.42;;;;;;;18.57;100.00;98820.63;5090683;28;20048;-53
2022/07/14 06:56:47;;;;;;;12.20;10.27;;;;;;;18.64;100.00;98825.25;5090548;28;20048;-56
2022/07/14 06:59:13;;;;;;;13.35;9.38;;;;;;;18.52;100.00;98824.66;5090445;28;20197;-53
2022/07/14 07:01:40;;;;;;;16.10;10.68;;;;;;;18.60;100.00;98839.22;5090360;28;20048;-53
2022/07/14 07:04:06;;;;;;;12.63;9.98;;;;;;;18.56;100.00;98832.97;5090288;28;20100;-54
2022/07/14 07:06:44;;;;;;;10.98;8.02;;;;;;;18.49;100.00;98841.41;5090187;28;20442;-55
2022/07/14 07:09:11;;;;;;;15.88;11.73;;;;;;;18.41;100.00;98832.44;5090209;28;20139;-55
2022/07/14 07:11:38;;;;;;;9.57;7.35;;;;;;;18.33;100.00;98840.13;5090024;28;20048;-55
2022/07/14 07:14:04;;;;;;;11.30;7.80;;;;;;;18.15;100.00;98836.09;5090211;28;20581;-55
2022/07/14 07:16:30;;;;;;;13.73;8.45;;;;;;;18.55;100.00;98829.38;5090430;28;20430;-56
2022/07/14 07:18:57;;;;;;;10.38;8.55;;;;;;;18.66;100.00;98826.41;5090296;28;20047;-55
2022/07/14 07:21:24;;;;;;;21.60;18.63;;;;;;;18.92;100.00;98821.13;5090201;28;20076;-53
2022/07/14 07:23:51;;;;;;;13.95;6.82;;;;;;;19.12;100.00;98816.31;5090003;28;20506;-55
2022/07/14 07:26:20;;;;;;;9.82;8.43;;;;;;;19.19;100.00;98795.91;5090062;28;20063;-53
2022/07/14 07:28:47;;;;;;;11.30;8.05;;;;;;;19.27;100.00;98791.78;5090105;28;20060;-53
2022/07/14 07:31:13;;;;;;;9.38;8.25;;;;;;;19.31;100.00;98775.00;5089688;28;20063;-53
2022/07/14 07:33:40;;;;;;;8.90;7.60;;;;;;;19.15;100.00;98768.22;5090242;28;20048;-55
2022/07/14 07:36:07;;;;;;;10.25;8.55;;;;;;;19.22;100.00;98781.16;5090082;28;20048;-55
2022/07/14 07:38:34;;;;;;;9.70;7.00;;;;;;;19.09;100.00;98785.84;5090132;28;20058;-53
2022/07/14 07:41:01;;;;;;;13.20;8.75;;;;;;;19.40;100.00;98761.31;5090099;28;20086;-54
2022/07/14 07:43:27;;;;;;;9.82;7.78;;;;;;;19.64;100.00;98734.91;5089980;28;20055;-52
2022/07/14 07:45:54;;;;;;;10.15;8.30;;;;;;;19.91;100.00;98703.97;5089701;28;20410;-56
2022/07/14 07:48:20;;;;;;;8.85;6.05;;;;;;;19.95;100.00;98659.38;5089749;28;20091;-52
2022/07/14 07:50:46;;;;;;;12.25;7.63;;;;;;;20.20;100.00;98606.56;5089854;28;20567;-55
2022/07/14 07:53:14;;;;;;;8.77;7.88;;;;;;;20.21;100.00;98585.06;5089869;28;20048;-56
2022/07/14 07:55:40;;;;;;;9.27;7.72;;;;;;;20.67;100.00;98508.44;5089786;28;20052;-55
2022/07/14 07:58:07;;;;;;;10.98;7.50;;;;;;;21.05;100.00;98409.25;5090108;28;20422;-55
2022/07/14 08:00:34;;;;;;;8.10;5.60;;;;;;;21.23;100.00;98370.34;5090028;28;20109;-55
2022/07/14 08:03:01;;;;;;;12.00;6.75;;;;;;;21.27;100.00;98412.03;5089533;28;20495;-55
2022/07/14 08:05:29;;;;;;;11.05;6.28;;;;;;;21.41;100.00;98378.06;5089778;28;20101;-55
2022/07/14 08:07:56;;;;;;;8.45;6.05;;;;;;;21.76;100.00;98310.91;5089611;28;20190;-55
2022/07/14 08:10:23;;;;;;;7.88;6.40;;;;;;;21.70;100.00;98137.06;5089638;28;20582;-56
2022/07/14 08:12:50;;;;;;;6.60;5.85;;;;;;;21.41;100.00;98123.56;5089622;28;20051;-55
2022/07/14 08:15:17;;;;;;;7.05;6.32;;;;;;;21.45;100.00;98180.72;5089452;28;20510;-56
2022/07/14 08:17:43;;;;;;;8.57;6.60;;;;;;;21.29;100.00;98328.69;5089525;28;20044;-56
2022/07/14 08:20:10;;;;;;;7.15;6.50;;;;;;;21.33;100.00;98394.25;5089376;28;20059;-56
2022/07/14 08:22:37;;;;;;;6.78;5.80;;;;;;;21.63;100.00;98388.38;5089394;28;20056;-55
2022/07/14 08:25:06;;;;;;;12.45;6.22;;;;;;;21.60;100.00;98387.28;5091730;28;20055;-56
2022/07/14 08:27:33;;;;;;;13.55;6.82;;;;;;;21.82;100.00;98250.50;5093241;28;20048;-54
2022/07/14 08:30:00;;;;;;;8.30;6.35;;;;;;;21.66;100.00;98218.09;5093059;28;20052;-57
2022/07/14 08:32:37;;;;;;;7.40;6.60;;;;;;;21.74;100.00;98293.88;5093086;28;20044;-57
2022/07/14 08:35:05;;;;;;;9.85;6.10;;;;;;;21.56;100.00;98334.44;5093068;28;20556;-56
2022/07/14 08:37:31;;;;;;;9.80;6.20;;;;;;;21.46;100.00;98267.91;5092979;28;20473;-52
2022/07/14 08:39:57;;;;;;;6.57;5.63;;;;;;;21.36;100.00;98320.88;5093237;28;20052;-54
2022/07/14 08:42:24;;;;;;;10.40;8.38;;;;;;;21.19;100.00;98427.44;5093015;28;20589;-56
2022/07/14 08:44:52;;;;;;;7.38;6.32;;;;;;;20.93;100.00;98502.81;5092860;28;20507;-57
2022/07/14 08:47:19;;;;;;;6.10;5.50;;;;;;;21.10;100.00;98473.53;5092723;28;20051;-56
2022/07/14 08:49:45;;;;;;;6.00;5.40;;;;;;;21.64;100.00;98418.59;5092966;28;20048;-57
2022/07/14 08:52:12;;;;;;;6.10;5.47;;;;;;;22.13;100.00;98300.63;5092669;28;20044;-56
2022/07/14 08:54:39;;;;;;;6.32;5.35;;;;;;;23.62;100.00;98145.97;5092660;28;20166;-58
2022/07/14 08:57:05;;;;;;;8.15;6.50;;;;;;;23.64;100.00;97844.13;5092372;28;20048;-57
2022/07/14 08:59:31;;;;;;;7.07;4.80;;;;;;;23.79;100.00;97746.97;5092576;28;20529;-57
2022/07/14 09:01:59;;;;;;;8.85;5.22;;;;;;;23.52;100.00;97724.94;5092158;28;20052;-59
2022/07/14 09:04:26;;;;;;;8.07;5.30;;;;;;;23.45;100.00;97731.69;5092568;28;20048;-57
2022/07/14 09:06:53;;;;;;;6.03;5.35;;;;;;;23.38;100.00;97741.25;5092474;28;20044;-57
2022/07/14 09:09:21;;;;;;;9.32;5.25;;;;;;;23.35;100.00;97710.72;5092145;28;20052;-57
2022/07/14 09:11:57;;;;;;;6.63;5.32;;;;;;;23.43;100.00;97804.91;5092651;28;20047;-57
2022/07/14 09:14:24;;;;;;;5.85;4.70;;;;;;;23.06;100.00;97728.31;5092269;28;20090;-57
2022/07/14 09:16:52;;;;;;;7.63;4.65;;;;;;;23.95;100.00;97714.81;5092430;28;20414;-56
2022/07/14 09:19:20;;;;;;;7.68;4.90;;;;;;;24.58;100.00;97585.38;5092088;28;20120;-58
2022/07/14 09:21:53;;;;;;;8.07;4.47;;;;;;;24.84;100.00;97594.47;5092130;28;20051;-57
2022/07/14 09:24:21;;;;;;;10.95;4.18;;;;;;;25.99;100.00;97450.03;5092192;28;20109;-58
2022/07/14 09:26:48;;;;;;;8.15;4.07;;;;;;;26.57;100.00;97336.28;5092032;28;20300;-58
2022/07/14 09:29:20;;;;;;;9.38;3.90;;;;;;;26.75;100.00;97327.22;5092131;28;20047;-57
2022/07/14 09:31:47;;;;;;;6.30;3.88;;;;;;;27.31;100.00;97317.69;5092099;28;20052;-58
2022/07/14 09:34:27;;;;;;;5.00;3.60;;;;;;;27.29;100.00;97332.31;5091993;28;20051;-59
2022/07/14 09:36:53;;;;;;;6.15;3.97;;;;;;;27.12;100.00;97318.31;5090392;28;20143;-58
2022/07/14 09:39:20;;;;;;;10.25;3.70;;;;;;;27.20;100.00;97321.38;5092067;28;20048;-59
2022/07/14 09:41:52;;;;;;;8.85;3.22;;;;;;;27.67;100.00;97329.66;5091811;28;20178;-57
2022/07/14 09:44:19;;;;;;;4.38;3.20;;;;;;;27.53;100.00;97342.09;5091817;28;20080;-58
2022/07/14 09:46:48;;;;;;;6.60;3.30;;;;;;;27.52;100.00;97341.31;5091572;28;20058;-57
2022/07/14 09:49:15;;;;;;;4.13;3.25;;;;;;;27.13;100.00;97319.88;5092231;28;20410;-58
2022/07/14 09:51:53;;;;;;;7.10;2.88;;;;;;;27.67;100.00;97338.88;5092108;28;20760;-58
2022/07/14 09:54:45;;;;;;;7.13;2.78;;;;;;;28.47;100.00;97376.25;5091558;28;20052;-59
2022/07/14 09:57:26;;;;;;;4.05;2.92;;;;;;;27.78;100.00;97343.66;5091826;28;20135;-58
2022/07/14 09:59:57;;;;;;;9.40;2.75;;;;;;;27.23;100.00;97351.25;5091417;28;20059;-60
2022/07/14 10:02:26;;;;;;;7.72;2.97;;;;;;;27.82;100.00;97365.91;5091696;28;20048;-58
2022/07/14 10:04:55;;;;;;;5.40;2.78;;;;;;;26.89;100.00;97387.22;5091438;28;20048;-58
2022/07/14 10:07:24;;;;;;;4.60;2.53;;;;;;;27.00;100.00;97361.88;5091279;28;20135;-58
2022/07/14 10:09:59;;;;;;;4.45;2.78;;;;;;;27.17;100.00;97342.09;5091335;28;20101;-59
2022/07/14 10:12:26;;;;;;;2.78;2.47;;;;;;;27.72;100.00;97378.75;5091289;28;20059;-58
2022/07/14 10:14:53;;;;;;;4.25;2.22;;;;;;;27.87;100.00;97391.19;5091259;28;20043;-58
2022/07/14 10:17:20;;;;;;;8.15;3.25;;;;;;;27.96;100.00;97398.56;5091040;28;20048;-58
2022/07/14 10:19:47;;;;;;;3.30;2.63;;;;;;;26.86;100.00;97405.16;5091494;28;20574;-58
2022/07/14 10:22:15;;;;;;;3.97;2.28;;;;;;;27.44;100.00;97348.78;5090870;28;20105;-58
2022/07/14 10:24:43;;;;;;;5.22;2.90;;;;;;;27.63;100.00;97371.44;5091308;28;20190;-58
2022/07/14 10:27:11;;;;;;;5.13;2.97;;;;;;;27.79;100.00;97369.75;5090930;28;20055;-58
2022/07/14 10:29:38;;;;;;;3.45;2.33;;;;;;;27.74;100.00;97390.28;5090867;28;20499;-58
2022/07/14 10:32:18;;;;;;;4.80;2.70;;;;;;;27.29;100.00;97385.75;5091190;28;20048;-57
2022/07/14 10:34:53;;;;;;;3.00;2.30;;;;;;;27.18;100.00;97383.00;5091068;28;20204;-58
2022/07/14 10:37:24;;;;;;;3.55;2.58;;;;;;;27.35;100.00;97347.06;5091184;28;20054;-59
2022/07/14 10:40:02;;;;;;;2.92;2.38;;;;;;;27.41;100.00;97344.97;5090890;28;20052;-57
2022/07/14 10:42:40;;;;;;;10.88;2.85;;;;;;;26.98;100.00;97361.59;5090909;28;20055;-57
2022/07/14 10:45:08;;;;;;;6.03;2.92;;;;;;;26.65;100.00;97337.25;5090438;28;20128;-57
2022/07/14 10:47:47;;;;;;;3.67;2.60;;;;;;;26.38;100.00;97334.03;5090387;28;20048;-57
2022/07/14 10:50:18;;;;;;;2.80;2.60;;;;;;;26.50;100.00;97365.69;5090867;28;20147;-58
2022/07/14 10:53:00;;;;;;;7.00;2.90;;;;;;;26.80;100.00;97388.31;5090556;28;20063;-57
2022/07/14 10:55:36;;;;;;;3.40;2.30;;;;;;;26.86;100.00;97450.13;5090792;28;20522;-58
2022/07/14 10:58:30;;;;;;;3.75;2.25;;;;;;;26.20;100.00;97432.91;5090256;28;20105;-56
2022/07/14 11:00:58;;;;;;;4.97;2.78;;;;;;;25.71;100.00;97409.94;5090636;28;20438;-57
2022/07/14 11:03:27;;;;;;;4.25;2.20;;;;;;;25.46;100.00;97376.03;5090421;28;20063;-57
2022/07/14 11:06:17;;;;;;;2.83;2.30;;;;;;;25.22;100.00;97328.81;5090548;28;20058;-56
2022/07/14 11:08:45;;;;;;;6.82;2.35;;;;;;;24.62;100.00;97314.16;5088104;28;20052;-57
2022/07/14 11:11:19;;;;;;;4.53;2.67;;;;;;;24.57;100.00;97284.09;5090213;28;20055;-57
2022/07/14 11:14:07;;;;;;;4.38;4.03;;;;;;;24.42;100.00;97279.47;5090552;28;20139;-57
2022/07/14 11:16:58;;;;;;;4.75;3.55;;;;;;;24.36;100.00;97284.28;5090077;28;20086;-55
2022/07/14 11:19:33;;;;;;;6.03;2.92;;;;;;;24.24;100.00;97285.50;5090521;28;20048;-57
2022/07/14 11:22:18;;;;;;;5.43;2.97;;;;;;;24.49;100.00;97285.84;5090851;28;20416;-57
2022/07/14 11:24:50;;;;;;;3.90;2.28;;;;;;;24.76;100.00;97279.56;5089993;28;20135;-57
2022/07/14 11:27:28;;;;;;;8.27;2.60;;;;;;;25.09;100.00;97273.22;5090674;28;20044;-56
2022/07/14 11:29:56;;;;;;;10.70;2.58;;;;;;;25.25;100.00;97318.63;5089867;28;20048;-57
2022/07/14 11:32:30;;;;;;;6.50;2.72;;;;;;;25.19;100.00;97368.31;5090421;28;20043;-57
2022/07/14 11:37:57;;;;;;;9.50;2.03;;;;;;;25.48;100.00;97474.44;5090096;28;20051;-56
2022/07/14 11:40:49;;;;;;;10.52;1.90;;;;;;;25.52;100.00;97592.78;5089997;28;20078;-57
2022/07/14 11:43:43;;;;;;;8.95;1.92;;;;;;;25.69;100.00;97611.72;5089638;28;20602;-56